createdAt,value
2019-02-24T00:01:54.594Z,95133.97
2019-02-24T00:04:44.692Z,95141.88
2019-02-24T00:08:11.075Z,95102.90
2019-02-24T00:10:29.861Z,95120.98
2019-02-24T00:13:02.621Z,95077.92
2019-02-24T00:15:44.598Z,95140.88
2019-02-24T00:18:56.149Z,95116.12
2019-02-24T00:21:31.247Z,95141.88
2019-02-24T00:24:13.153Z,95141.88
2019-02-24T00:27:11.861Z,95114.00
2019-02-24T00:29:56.135Z,95120.67
2019-02-24T00:32:31.525Z,95143.26
2019-02-24T00:35:06.397Z,95143.19
2019-02-24T00:37:42.794Z,95121.67
2019-02-24T00:40:18.857Z,95133.58
2019-02-24T00:43:02.096Z,95151.66
2019-02-24T00:45:38.296Z,95170.78
2019-02-24T00:48:26.978Z,95163.61
2019-02-24T00:50:58.715Z,95147.12
2019-02-24T00:53:42.269Z,95124.29
2019-02-24T00:56:11.167Z,95131.66
2019-02-24T00:58:57.214Z,95174.22
2019-02-24T01:01:54.106Z,95170.48
2019-02-24T01:04:31.417Z,95152.17
2019-02-24T01:07:06.438Z,95131.16
2019-02-24T01:09:41.681Z,95169.47
2019-02-24T01:12:16.714Z,95181.39
2019-02-24T01:14:49.634Z,95156.59
2019-02-24T01:17:30.447Z,95156.59
2019-02-24T01:20:14.429Z,95144.19
2019-02-24T01:22:53.617Z,95163.27
2019-02-24T01:25:43.938Z,95142.26
2019-02-24T01:28:25.665Z,95151.74
2019-02-24T01:31:17.061Z,95170.98
2019-02-24T01:33:52.655Z,95128.72
2019-02-24T01:36:25.566Z,95152.67
2019-02-24T01:38:57.964Z,95153.67
2019-02-24T01:41:32.606Z,95149.43
2019-02-24T01:44:08.063Z,95142.56
2019-02-24T01:46:45.034Z,95145.69
2019-02-24T01:49:20.436Z,95154.87
2019-02-24T01:52:15.684Z,95154.87
2019-02-24T01:54:47.992Z,95150.12
2019-02-24T01:57:25.533Z,95138.02
2019-02-24T01:59:55.548Z,95138.83
2019-02-24T02:02:27.675Z,95124.17
2019-02-24T02:04:59.677Z,95158.41
2019-02-24T02:07:39.107Z,95134.78
2019-02-24T02:10:21.927Z,95139.02
2019-02-24T02:13:01.447Z,95133.16
2019-02-24T02:15:37.212Z,95145.19
2019-02-24T02:18:08.165Z,95138.20
2019-02-24T02:20:46.366Z,95129.73
2019-02-24T02:23:21.482Z,95170.67
2019-02-24T02:25:53.417Z,95138.20
2019-02-24T02:28:30.416Z,95163.97
2019-02-24T02:31:08.646Z,95168.70
2019-02-24T02:33:43.326Z,95157.60
2019-02-24T02:36:18.233Z,95140.83
2019-02-24T02:38:55.175Z,95134.78
2019-02-24T02:41:27.842Z,95172.64
2019-02-24T02:44:02.301Z,95175.41
2019-02-24T02:46:43.652Z,95191.57
2019-02-24T02:49:15.442Z,95189.95
2019-02-24T02:51:55.574Z,95160.22
2019-02-24T02:54:41.265Z,95162.84
2019-02-24T02:57:18.263Z,95192.27
2019-02-24T02:59:53.995Z,95132.55
2019-02-24T03:02:30.703Z,95165.47
2019-02-24T03:05:03.429Z,95143.64
2019-02-24T03:07:51.462Z,95141.02
2019-02-24T03:10:28.056Z,95151.94
2019-02-24T03:12:56.187Z,95145.87
2019-02-24T03:15:26.714Z,95213.09
2019-02-24T03:17:57.281Z,95225.52
2019-02-24T03:20:28.237Z,95229.44
2019-02-24T03:23:10.477Z,95177.89
2019-02-24T03:25:45.664Z,95224.89
2019-02-24T03:28:22.633Z,95198.44
2019-02-24T03:31:01.863Z,95203.48
2019-02-24T03:33:32.676Z,95180.01
2019-02-24T03:36:21.587Z,95203.67
2019-02-24T03:38:55.025Z,95186.70
2019-02-24T03:41:28.471Z,95202.37
2019-02-24T03:44:15.486Z,95202.37
2019-02-24T03:46:48.285Z,95210.55
2019-02-24T03:49:21.409Z,95229.44
2019-02-24T03:52:08.075Z,95240.24
2019-02-24T03:54:41.729Z,95239.74
2019-02-24T03:57:12.303Z,95237.93
2019-02-24T03:59:48.201Z,95249.73
2019-02-24T04:02:18.815Z,95222.96
2019-02-24T04:04:49.334Z,95254.28
2019-02-24T04:07:39.125Z,95235.69
2019-02-24T04:10:17.269Z,95242.56
2019-02-24T04:13:55.076Z,95266.70
2019-02-24T04:15:26.659Z,95264.90
2019-02-24T04:17:57.299Z,95278.44
2019-02-24T04:20:27.939Z,95291.80
2019-02-24T04:23:08.580Z,95274.81
2019-02-24T04:25:39.105Z,95256.41
2019-02-24T04:28:09.955Z,95277.44
2019-02-24T04:30:42.597Z,95290.17
2019-02-24T04:33:18.091Z,95247.11
2019-02-24T04:35:48.925Z,95274.50
2019-02-24T04:38:20.000Z,95265.40
2019-02-24T04:40:56.480Z,95305.41
2019-02-24T04:43:31.349Z,95275.70
2019-02-24T04:46:06.080Z,95297.73
2019-02-24T04:48:36.597Z,95309.80
2019-02-24T04:51:07.069Z,95302.28
2019-02-24T04:53:37.749Z,95290.86
2019-02-24T04:56:10.314Z,95282.06
2019-02-24T04:58:40.940Z,95287.23
2019-02-24T05:01:29.631Z,95301.48
2019-02-24T05:04:01.952Z,95276.81
2019-02-24T05:06:38.556Z,95286.62
2019-02-24T05:09:09.013Z,95297.23
2019-02-24T05:11:39.646Z,95290.05
2019-02-24T05:14:10.272Z,95313.43
2019-02-24T05:16:49.711Z,95323.73
2019-02-24T05:19:18.700Z,95323.23
2019-02-24T05:21:52.349Z,95320.30
2019-02-24T05:24:23.064Z,95315.41
2019-02-24T05:26:58.039Z,95305.72
2019-02-24T05:29:30.811Z,95316.05
2019-02-24T05:32:05.239Z,95325.55
2019-02-24T05:34:37.465Z,95329.60
2019-02-24T05:37:12.758Z,95304.91
2019-02-24T05:40:11.179Z,95324.86
2019-02-24T05:42:51.046Z,95306.91
2019-02-24T05:45:22.912Z,95344.15
2019-02-24T05:48:04.690Z,95304.59
2019-02-24T05:50:36.666Z,95314.41
2019-02-24T05:53:08.623Z,95361.64
2019-02-24T05:55:57.552Z,95328.98
2019-02-24T05:58:26.490Z,95335.97
2019-02-24T06:00:58.843Z,95314.73
2019-02-24T06:03:34.925Z,95330.41
2019-02-24T06:06:13.121Z,95350.02
2019-02-24T06:08:43.301Z,95339.09
2019-02-24T06:11:15.753Z,95354.27
2019-02-24T06:14:05.256Z,95371.25
2019-02-24T06:16:45.291Z,95385.18
2019-02-24T06:19:21.605Z,95383.68
2019-02-24T06:21:56.736Z,95372.88
2019-02-24T06:24:30.738Z,95378.31
2019-02-24T06:27:02.831Z,95355.58
2019-02-24T06:29:40.322Z,95399.36
2019-02-24T06:32:10.409Z,95414.22
2019-02-24T06:34:41.177Z,95424.84
2019-02-24T06:37:16.374Z,95419.28
2019-02-24T06:39:51.983Z,95424.84
2019-02-24T06:42:37.871Z,95417.97
2019-02-24T06:45:27.543Z,95443.67
2019-02-24T06:47:58.393Z,95442.67
2019-02-24T06:50:58.539Z,95438.58
2019-02-24T06:53:31.492Z,95448.55
2019-02-24T06:56:02.028Z,95451.98
2019-02-24T06:58:38.395Z,95480.41
2019-02-24T07:01:12.610Z,95472.73
2019-02-24T07:03:47.605Z,95483.35
2019-02-24T07:06:21.375Z,95516.34
2019-02-24T07:08:53.620Z,95501.97
2019-02-24T07:11:43.100Z,95513.91
2019-02-24T07:14:47.196Z,95530.10
2019-02-24T07:18:02.393Z,95547.91
2019-02-24T07:20:52.190Z,95541.29
2019-02-24T07:23:44.012Z,95609.91
2019-02-24T07:27:31.313Z,95609.41
2019-02-24T07:30:42.118Z,95609.91
2019-02-24T07:33:34.094Z,95644.74
2019-02-24T07:36:29.499Z,95680.75
2019-02-24T07:39:13.961Z,95679.44
2019-02-24T07:42:19.910Z,95678.12
2019-02-24T07:45:41.479Z,95706.59
2019-02-24T07:48:45.093Z,95754.21
2019-02-24T07:51:30.164Z,95748.95
2019-02-24T07:54:23.401Z,95779.44
2019-02-24T07:57:13.996Z,95757.47
2019-02-24T08:00:15.630Z,95824.48
2019-02-24T08:03:01.144Z,95832.50
2019-02-24T08:05:44.354Z,95866.56
2019-02-24T08:08:21.571Z,95907.87
2019-02-24T08:11:22.493Z,95915.89
2019-02-24T08:14:16.644Z,95925.86
2019-02-24T08:16:58.398Z,95969.16
2019-02-24T08:19:46.196Z,95966.20
2019-02-24T08:22:21.473Z,96000.61
2019-02-24T08:25:17.551Z,96021.95
2019-02-24T08:27:46.482Z,95997.67
2019-02-24T08:30:41.666Z,96026.72
2019-02-24T08:33:13.079Z,96061.64
2019-02-24T08:35:44.653Z,96044.59
2019-02-24T08:38:20.326Z,96027.53
2019-02-24T08:41:03.634Z,96066.72
2019-02-24T08:43:49.638Z,96085.91
2019-02-24T08:46:27.487Z,96085.91
2019-02-24T08:49:08.257Z,96099.20
2019-02-24T08:51:47.790Z,96121.34
2019-02-24T08:54:36.005Z,96138.44
2019-02-24T08:57:15.756Z,96125.30
2019-02-24T08:59:57.772Z,96121.03
2019-02-24T09:02:31.118Z,96077.56
2019-02-24T09:06:02.193Z,96062.33
2019-02-24T09:08:16.368Z,96029.22
2019-02-24T09:10:49.155Z,96076.75
2019-02-24T09:13:25.988Z,96086.28
2019-02-24T09:16:11.240Z,96093.80
2019-02-24T09:18:40.178Z,96107.41
2019-02-24T09:21:12.881Z,96135.64
2019-02-24T09:24:00.320Z,96138.44
2019-02-24T09:27:10.324Z,96190.95
2019-02-24T09:29:49.223Z,96162.08
2019-02-24T09:35:42.632Z,96148.97
2019-02-24T09:36:10.651Z,96162.08
2019-02-24T09:38:54.668Z,96190.63
2019-02-24T09:41:37.531Z,96231.98
2019-02-24T09:44:24.465Z,96217.55
2019-02-24T09:47:03.569Z,96259.08
2019-02-24T09:53:01.819Z,96231.98
2019-02-24T09:55:52.695Z,96257.63
2019-02-24T10:01:10.551Z,96319.84
2019-02-24T10:10:12.649Z,96354.64
2019-02-24T10:12:32.021Z,96378.17
2019-02-24T10:15:07.916Z,96383.44
2019-02-24T10:17:58.222Z,96449.62
2019-02-24T10:21:09.651Z,96497.84
2019-02-24T10:23:54.622Z,96554.41
2019-02-24T10:27:18.161Z,96619.44
2019-02-24T10:29:35.761Z,96687.67
2019-02-24T10:32:15.582Z,96633.88
2019-02-24T10:36:02.900Z,96691.13
2019-02-24T10:38:29.642Z,96962.46
2019-02-24T10:41:39.431Z,97431.00
2019-02-24T10:44:40.576Z,97393.30
2019-02-24T10:47:29.125Z,97363.22
2019-02-24T10:50:05.132Z,97574.09
2019-02-24T10:53:10.106Z,97581.53
2019-02-24T10:56:28.234Z,97352.00
2019-02-24T11:02:33.327Z,97351.00
2019-02-24T11:05:22.192Z,97407.53
2019-02-24T11:08:06.031Z,97832.88
2019-02-24T11:10:48.759Z,98112.66
2019-02-24T11:13:45.689Z,97931.34
2019-02-24T11:16:32.151Z,97939.13
2019-02-24T11:19:45.649Z,98181.53
2019-02-24T11:25:45.811Z,98709.69
2019-02-24T11:29:49.461Z,99027.37
2019-02-24T11:32:12.216Z,98672.02
2019-02-24T11:35:10.091Z,98777.27
2019-02-24T11:37:56.794Z,98577.47
2019-02-24T11:40:19.503Z,98692.33
2019-02-24T11:43:26.145Z,98658.20
2019-02-24T11:45:57.763Z,99020.19
2019-02-24T11:48:31.745Z,99304.81
2019-02-24T11:51:26.365Z,99159.52
2019-02-24T11:53:58.038Z,99115.79
2019-02-24T11:56:33.104Z,99289.77
2019-02-24T11:59:03.553Z,99553.94
2019-02-24T12:01:47.412Z,99655.54
2019-02-24T12:04:11.381Z,99930.80
2019-02-24T12:06:41.782Z,100113.96
2019-02-24T12:09:13.176Z,99946.54
2019-02-24T12:11:44.082Z,99931.06
2019-02-24T12:14:14.567Z,99822.16
2019-02-24T12:16:47.123Z,100003.20
2019-02-24T12:19:17.654Z,99982.89
2019-02-24T12:21:57.431Z,99878.78
2019-02-24T12:24:29.593Z,99809.02
2019-02-24T12:27:09.831Z,99831.70
2019-02-24T12:29:52.818Z,99763.15
2019-02-24T12:32:23.414Z,99799.66
2019-02-24T12:34:56.549Z,99833.19
2019-02-24T12:37:47.906Z,99778.23
2019-02-24T12:40:18.348Z,99544.86
2019-02-24T12:42:49.262Z,99251.50
2019-02-24T12:45:21.519Z,99185.67
2019-02-24T12:47:52.079Z,99162.64
2019-02-24T12:50:24.118Z,99266.69
2019-02-24T12:52:55.880Z,99387.98
2019-02-24T12:55:29.370Z,99524.14
2019-02-24T12:58:23.101Z,99579.52
2019-02-24T13:01:00.651Z,99931.44
2019-02-24T13:03:59.151Z,99881.95
2019-02-24T13:06:45.665Z,99828.84
2019-02-24T13:09:47.394Z,99985.72
2019-02-24T13:12:24.971Z,99834.03
2019-02-24T13:15:37.894Z,99734.36
2019-02-24T13:18:40.054Z,99754.44
2019-02-24T13:21:14.346Z,99359.75
2019-02-24T13:24:07.307Z,99172.16
2019-02-24T13:26:58.308Z,99184.34
2019-02-24T13:30:02.300Z,99360.92
2019-02-24T13:32:55.673Z,99743.41
2019-02-24T13:35:28.647Z,100234.83
2019-02-24T13:38:08.182Z,100488.72
2019-02-24T13:41:09.377Z,100156.20
2019-02-24T13:43:44.333Z,99745.73
2019-02-24T13:46:40.200Z,99638.25
2019-02-24T13:49:13.905Z,99296.06
2019-02-24T13:51:53.672Z,98908.72
2019-02-24T13:54:35.065Z,98719.93
2019-02-24T13:59:56.060Z,98915.89
2019-02-24T14:02:51.220Z,99337.37
2019-02-24T14:05:35.991Z,99621.53
2019-02-24T14:08:22.950Z,99869.08
2019-02-24T14:11:15.994Z,99992.45
2019-02-24T14:14:00.197Z,99856.16
2019-02-24T14:16:55.356Z,99564.27
2019-02-24T14:19:46.352Z,99375.63
2019-02-24T14:22:30.273Z,99017.31
2019-02-24T14:25:07.138Z,98877.05
2019-02-24T14:27:45.288Z,98981.64
2019-02-24T14:30:34.885Z,99183.53
2019-02-24T14:33:12.461Z,99274.38
2019-02-24T14:35:55.172Z,99220.95
2019-02-24T14:38:45.152Z,99260.52
2019-02-24T14:41:27.306Z,99185.52
2019-02-24T14:44:02.416Z,99147.64
2019-02-24T14:46:36.114Z,98871.23
2019-02-24T14:49:23.642Z,98621.23
2019-02-24T14:52:13.191Z,98433.75
2019-02-24T14:54:47.310Z,98136.02
2019-02-24T14:57:21.080Z,97946.93
2019-02-24T15:00:25.451Z,97835.87
2019-02-24T15:03:03.521Z,97701.39
2019-02-24T15:05:46.979Z,97567.67
2019-02-24T15:08:22.483Z,97409.53
2019-02-24T15:10:57.069Z,97358.98
2019-02-24T15:14:02.712Z,97314.84
2019-02-24T15:16:36.170Z,97239.72
2019-02-24T15:19:26.085Z,97186.53
2019-02-24T15:22:19.492Z,97124.50
2019-02-24T15:25:03.913Z,97030.45
2019-02-24T15:27:42.082Z,96965.15
2019-02-24T15:31:33.063Z,96914.37
2019-02-24T15:33:28.822Z,96838.92
2019-02-24T15:36:34.542Z,96744.20
2019-02-24T15:39:23.741Z,96706.86
2019-02-24T15:41:59.907Z,96634.27
2019-02-24T15:44:41.920Z,96634.45
2019-02-24T15:47:17.189Z,96610.25
2019-02-24T15:49:52.899Z,96605.47
2019-02-24T15:52:26.554Z,96568.45
2019-02-24T15:55:06.089Z,96531.61
2019-02-24T15:57:45.149Z,96538.02
2019-02-24T16:00:42.460Z,96547.72
2019-02-24T16:03:30.148Z,96531.11
2019-02-24T16:06:05.702Z,96531.94
2019-02-24T16:09:28.854Z,96486.20
2019-02-24T16:14:56.720Z,96426.06
2019-02-24T16:17:40.555Z,96438.06
2019-02-24T16:20:26.011Z,96424.24
2019-02-24T16:23:19.464Z,96397.13
2019-02-24T16:25:52.771Z,96412.42
2019-02-24T16:28:27.753Z,96323.06
2019-02-24T16:33:59.069Z,96339.78
2019-02-24T16:36:34.520Z,96284.78
2019-02-24T16:43:41.064Z,96278.52
2019-02-24T16:46:52.163Z,96241.92
2019-02-24T16:49:23.991Z,96222.72
2019-02-24T16:51:59.263Z,96170.36
2019-02-24T16:55:50.451Z,96150.34
2019-02-24T16:58:50.458Z,96161.02
2019-02-24T17:01:42.985Z,96160.83
2019-02-24T17:04:20.946Z,96121.80
2019-02-24T17:26:20.931Z,96070.64
2019-02-24T17:29:02.248Z,96065.05
2019-02-24T17:31:58.418Z,96098.03
2019-02-24T17:34:39.575Z,96073.27
2019-02-24T17:37:42.347Z,96032.42
2019-02-24T17:41:03.500Z,95982.59
2019-02-24T17:47:44.696Z,95941.45
2019-02-24T17:50:19.535Z,95931.62
2019-02-24T17:58:05.890Z,95919.84
2019-02-24T17:59:59.729Z,95923.09
2019-02-24T18:06:00.463Z,95877.37
2019-02-24T18:09:52.919Z,95902.93
2019-02-24T18:33:51.061Z,95832.35
2019-02-24T18:36:12.076Z,95843.81
2019-02-24T18:46:51.811Z,95770.78
2019-02-24T19:03:33.918Z,95573.98
2019-02-24T19:07:01.367Z,95535.91
2019-02-24T19:09:49.338Z,95541.30
2019-02-24T19:21:53.845Z,95525.10
2019-02-24T19:24:28.241Z,95488.95
2019-02-24T20:01:35.982Z,95458.09
2019-02-24T20:04:17.371Z,95369.24
2019-02-24T20:07:01.217Z,95343.77
2019-02-24T20:10:50.745Z,95351.45
2019-02-24T20:17:12.680Z,95320.92
2019-02-24T20:20:09.185Z,95400.94
2019-02-24T20:26:38.005Z,95329.60
2019-02-24T20:29:46.851Z,95327.29
2019-02-24T20:32:40.414Z,95388.19
2019-02-24T20:35:58.188Z,95334.97
2019-02-24T20:44:09.762Z,95438.16
2019-02-24T21:28:21.273Z,95593.43
2019-02-24T21:30:50.616Z,95608.31
2019-02-24T21:33:29.547Z,95623.54
2019-02-24T21:39:29.456Z,95638.73
2019-02-24T22:13:03.303Z,95463.52
2019-02-24T22:15:40.156Z,95416.98
2019-02-24T22:18:18.186Z,95380.05
2019-02-24T22:20:54.858Z,95387.54
2019-02-24T22:26:56.577Z,95311.13
2019-02-24T22:35:20.652Z,95261.85
2019-02-24T22:37:54.056Z,95282.11
2019-02-24T22:50:21.897Z,95336.78
2019-02-24T22:56:22.603Z,95393.09
2019-02-24T23:05:16.504Z,95374.48
2019-02-24T23:14:07.530Z,95323.59
2019-02-24T23:16:44.524Z,95386.23
2019-02-24T23:25:14.164Z,95446.34
2019-02-24T23:43:47.756Z,95510.11
2019-02-24T23:50:25.988Z,95453.22
2019-02-24T23:56:04.945Z,95439.84
